createdAt,value
2022-11-18T00:02:13.407Z,5.45
2022-11-18T00:04:39.928Z,6.95
2022-11-18T00:07:06.327Z,6.55
2022-11-18T00:09:32.707Z,7.22
2022-11-18T00:12:17.810Z,8.38
2022-11-18T00:14:44.186Z,6.88
2022-11-18T00:17:10.543Z,8.25
2022-11-18T00:19:38.071Z,7.13
2022-11-18T00:22:05.941Z,6.43
2022-11-18T00:24:32.714Z,8.60
2022-11-18T00:26:59.269Z,8.88
2022-11-18T00:29:29.177Z,7.22
2022-11-18T00:31:55.920Z,12.40
2022-11-18T00:34:22.335Z,8.60
2022-11-18T00:36:48.977Z,9.15
2022-11-18T00:39:16.829Z,8.88
2022-11-18T00:42:02.450Z,10.73
2022-11-18T00:44:28.914Z,8.40
2022-11-18T00:46:55.366Z,9.18
2022-11-18T00:49:22.067Z,8.25
2022-11-18T00:51:48.469Z,7.45
2022-11-18T00:54:14.845Z,7.90
2022-11-18T00:56:41.246Z,8.27
2022-11-18T00:59:08.010Z,9.48
2022-11-18T01:01:34.474Z,9.80
2022-11-18T01:04:01.582Z,8.52
2022-11-18T01:06:28.134Z,8.88
2022-11-18T01:08:54.534Z,9.60
2022-11-18T01:11:39.629Z,7.88
2022-11-18T01:14:05.975Z,9.98
2022-11-18T01:16:32.302Z,7.38
2022-11-18T01:18:58.736Z,9.32
2022-11-18T01:21:25.172Z,9.75
2022-11-18T01:23:51.558Z,9.07
2022-11-18T01:26:18.537Z,8.65
2022-11-18T01:28:44.862Z,10.75
2022-11-18T01:31:12.797Z,10.48
2022-11-18T01:33:39.133Z,9.90
2022-11-18T01:36:05.676Z,7.97
2022-11-18T01:38:32.083Z,8.57
2022-11-18T01:40:58.440Z,9.85
2022-11-18T01:43:24.777Z,9.75
2022-11-18T01:45:53.807Z,10.40
2022-11-18T01:48:28.600Z,8.85
2022-11-18T01:51:03.305Z,9.13
2022-11-18T01:53:32.413Z,9.00
2022-11-18T01:56:00.496Z,11.13
2022-11-18T01:58:28.573Z,9.98
2022-11-18T02:00:54.997Z,13.27
2022-11-18T02:03:21.852Z,8.43
2022-11-18T02:05:49.174Z,9.15
2022-11-18T02:08:17.671Z,12.38
2022-11-18T02:10:44.025Z,9.65
2022-11-18T02:13:11.703Z,10.25
2022-11-18T02:15:43.678Z,11.30
2022-11-18T02:18:18.253Z,13.15
2022-11-18T02:20:46.554Z,10.82
2022-11-18T02:23:42.069Z,9.15
2022-11-18T02:26:28.402Z,11.73
2022-11-18T02:29:04.417Z,11.43
2022-11-18T02:31:32.832Z,9.60
2022-11-18T02:34:06.405Z,10.25
2022-11-18T02:36:38.983Z,11.18
2022-11-18T02:39:09.143Z,11.70
2022-11-18T02:41:36.598Z,10.35
2022-11-18T02:44:09.488Z,8.95
2022-11-18T02:46:38.469Z,11.07
2022-11-18T02:49:09.963Z,11.07
2022-11-18T02:51:37.007Z,10.23
2022-11-18T02:54:05.557Z,11.63
2022-11-18T02:56:33.316Z,11.43
2022-11-18T02:58:59.708Z,10.88
2022-11-18T03:01:27.421Z,10.07
2022-11-18T03:03:53.976Z,10.90
2022-11-18T03:06:36.880Z,11.80
2022-11-18T03:09:03.240Z,11.13
2022-11-18T03:11:30.894Z,11.40
2022-11-18T03:14:06.095Z,13.80
2022-11-18T03:16:36.424Z,10.52
2022-11-18T03:19:02.759Z,10.98
2022-11-18T03:21:36.250Z,13.70
2022-11-18T03:24:32.708Z,10.43
2022-11-18T03:29:34.400Z,11.38
2022-11-18T03:32:05.962Z,10.07
2022-11-18T03:34:37.661Z,11.30
2022-11-18T03:37:10.163Z,9.20
2022-11-18T03:39:39.078Z,11.68
2022-11-18T03:42:25.784Z,10.98
2022-11-18T03:44:54.274Z,11.02
2022-11-18T03:47:29.005Z,12.65
2022-11-18T03:50:06.262Z,9.87
2022-11-18T03:52:34.665Z,10.52
2022-11-18T03:55:03.373Z,10.68
2022-11-18T03:57:42.657Z,13.93
2022-11-18T04:00:10.958Z,10.93
2022-11-18T04:02:38.113Z,11.23
2022-11-18T04:05:06.104Z,15.43
2022-11-18T04:07:32.493Z,12.45
2022-11-18T04:10:09.217Z,12.00
2022-11-18T04:12:38.056Z,14.00
2022-11-18T04:15:04.674Z,12.80
2022-11-18T04:17:31.017Z,14.00
2022-11-18T04:19:57.425Z,12.60
2022-11-18T04:22:23.952Z,11.85
2022-11-18T04:24:50.331Z,13.85
2022-11-18T04:27:16.702Z,12.93
2022-11-18T04:29:43.094Z,14.50
2022-11-18T04:32:09.545Z,14.18
2022-11-18T04:34:35.881Z,14.90
2022-11-18T04:37:03.103Z,13.90
2022-11-18T04:39:29.493Z,13.13
2022-11-18T04:41:55.862Z,12.80
2022-11-18T04:44:26.642Z,13.23
2022-11-18T04:46:53.650Z,13.48
2022-11-18T04:49:20.319Z,13.65
2022-11-18T04:51:48.049Z,12.63
2022-11-18T04:54:15.171Z,14.10
2022-11-18T04:56:48.474Z,10.30
2022-11-18T04:59:16.891Z,12.63
2022-11-18T05:01:43.637Z,14.38
2022-11-18T05:04:14.264Z,12.63
2022-11-18T05:06:40.636Z,13.95
2022-11-18T05:09:07.011Z,12.32
2022-11-18T05:11:51.982Z,13.82
2022-11-18T05:14:18.319Z,13.30
2022-11-18T05:16:44.841Z,13.88
2022-11-18T05:19:11.205Z,15.90
2022-11-18T05:21:37.607Z,15.80
2022-11-18T05:24:04.871Z,13.15
2022-11-18T05:26:31.519Z,16.25
2022-11-18T05:28:57.901Z,13.20
2022-11-18T05:31:24.345Z,14.30
2022-11-18T05:33:50.754Z,13.40
2022-11-18T05:36:18.755Z,14.73
2022-11-18T05:38:45.494Z,17.13
2022-11-18T05:41:32.192Z,24.70
2022-11-18T05:43:59.024Z,21.75
2022-11-18T05:46:25.524Z,29.38
2022-11-18T05:48:51.974Z,26.05
2022-11-18T05:51:18.418Z,20.80
2022-11-18T05:53:44.783Z,22.27
2022-11-18T05:56:22.285Z,19.00
2022-11-18T05:58:48.677Z,15.93
2022-11-18T06:01:18.724Z,18.88
2022-11-18T06:03:45.352Z,20.85
2022-11-18T06:06:12.831Z,23.15
2022-11-18T06:08:41.145Z,23.17
2022-11-18T06:11:08.552Z,27.90
2022-11-18T06:13:37.604Z,30.35
2022-11-18T06:16:04.132Z,29.50
2022-11-18T06:18:31.569Z,33.97
2022-11-18T06:21:03.469Z,32.38
2022-11-18T06:23:32.488Z,39.42
2022-11-18T06:25:58.840Z,43.05
2022-11-18T06:28:25.791Z,38.70
2022-11-18T06:30:52.225Z,58.20
2022-11-18T06:33:18.612Z,44.33
2022-11-18T06:35:45.160Z,37.88
2022-11-18T06:38:11.550Z,40.80
2022-11-18T06:40:38.216Z,41.85
2022-11-18T06:43:26.684Z,62.33
2022-11-18T06:46:12.031Z,34.28
2022-11-18T06:48:38.409Z,47.30
2022-11-18T06:51:05.580Z,55.40
2022-11-18T06:53:33.258Z,51.90
2022-11-18T06:56:02.970Z,47.45
2022-11-18T06:58:29.276Z,38.00
2022-11-18T07:00:55.804Z,42.97
2022-11-18T07:03:22.174Z,61.40
2022-11-18T07:05:48.630Z,41.33
2022-11-18T07:08:15.033Z,46.13
2022-11-18T07:10:41.364Z,50.72
2022-11-18T07:13:07.705Z,46.97
2022-11-18T07:15:34.155Z,44.28
2022-11-18T07:18:00.542Z,45.15
2022-11-18T07:20:26.851Z,39.85
2022-11-18T07:22:53.866Z,45.65
2022-11-18T07:25:20.450Z,39.35
2022-11-18T07:27:47.424Z,38.80
2022-11-18T07:30:13.877Z,34.85
2022-11-18T07:32:40.192Z,45.03
2022-11-18T07:35:06.832Z,39.30
2022-11-18T07:37:33.143Z,29.15
2022-11-18T07:39:59.936Z,32.90
2022-11-18T07:42:26.391Z,37.30
2022-11-18T07:44:53.146Z,35.00
2022-11-18T07:47:19.491Z,39.95
2022-11-18T07:49:45.812Z,40.63
2022-11-18T07:52:12.154Z,31.20
2022-11-18T07:54:38.480Z,30.95
2022-11-18T07:57:04.808Z,30.02
2022-11-18T07:59:31.150Z,31.73
2022-11-18T08:01:57.885Z,41.25
2022-11-18T08:04:24.500Z,32.40
2022-11-18T08:06:50.890Z,33.63
2022-11-18T08:09:17.461Z,35.20
2022-11-18T08:11:44.023Z,41.25
2022-11-18T08:14:10.394Z,39.20
2022-11-18T08:16:36.864Z,34.50
2022-11-18T08:19:03.251Z,42.00
2022-11-18T08:21:29.665Z,32.00
2022-11-18T08:23:57.323Z,37.55
2022-11-18T08:26:24.991Z,38.80
2022-11-18T08:28:51.402Z,44.10
2022-11-18T08:31:19.512Z,35.50
2022-11-18T08:33:45.954Z,33.33
2022-11-18T08:36:20.962Z,31.30
2022-11-18T08:38:47.388Z,35.13
2022-11-18T08:41:14.560Z,31.15
2022-11-18T08:43:41.278Z,30.55
2022-11-18T08:46:07.614Z,31.77
2022-11-18T08:48:34.070Z,30.73
2022-11-18T08:51:00.551Z,25.90
2022-11-18T08:53:26.922Z,29.20
2022-11-18T08:55:59.774Z,28.38
2022-11-18T08:58:26.763Z,34.67
2022-11-18T09:00:53.525Z,29.83
2022-11-18T09:03:20.187Z,30.15
2022-11-18T09:05:46.555Z,34.88
2022-11-18T09:08:12.983Z,30.13
2022-11-18T09:10:39.441Z,26.80
2022-11-18T09:13:25.217Z,29.48
2022-11-18T09:15:52.148Z,35.97
2022-11-18T09:18:18.539Z,26.52
2022-11-18T09:20:53.441Z,32.03
2022-11-18T09:23:19.962Z,33.10
2022-11-18T09:25:46.297Z,33.03
2022-11-18T09:28:12.640Z,32.88
2022-11-18T09:30:39.114Z,37.13
2022-11-18T09:33:07.093Z,38.08
2022-11-18T09:35:34.012Z,37.28
2022-11-18T09:38:00.324Z,33.03
2022-11-18T09:40:26.943Z,32.83
2022-11-18T09:43:22.500Z,40.08
2022-11-18T09:45:54.634Z,34.42
2022-11-18T09:48:41.887Z,31.70
2022-11-18T09:51:09.922Z,33.90
2022-11-18T09:53:39.290Z,35.58
2022-11-18T09:56:08.340Z,31.95
2022-11-18T09:58:35.895Z,29.80
2022-11-18T10:01:02.804Z,30.13
2022-11-18T10:03:30.181Z,34.95
2022-11-18T10:05:58.802Z,39.60
2022-11-18T10:08:28.515Z,34.78
2022-11-18T10:10:57.890Z,36.45
2022-11-18T10:13:30.409Z,26.23
2022-11-18T10:16:00.480Z,32.33
2022-11-18T10:18:58.348Z,33.85
2022-11-18T10:21:45.316Z,32.42
2022-11-18T10:24:20.299Z,33.75
2022-11-18T10:26:47.250Z,33.83
2022-11-18T10:29:13.681Z,41.90
2022-11-18T10:31:52.553Z,41.55
2022-11-18T10:34:19.272Z,41.97
2022-11-18T10:36:58.675Z,43.95
2022-11-18T10:39:25.031Z,42.55
2022-11-18T10:41:58.821Z,41.25
2022-11-18T10:44:35.979Z,38.97
2022-11-18T10:47:28.482Z,45.25
2022-11-18T10:49:56.154Z,47.60
2022-11-18T10:52:22.616Z,45.50
2022-11-18T10:55:07.677Z,48.45
2022-11-18T10:57:36.263Z,52.33
2022-11-18T11:00:02.996Z,78.13
2022-11-18T11:02:39.731Z,68.15
2022-11-18T11:05:35.513Z,52.25
2022-11-18T11:08:28.944Z,58.40
2022-11-18T11:10:55.953Z,70.85
2022-11-18T11:13:24.102Z,60.88
2022-11-18T11:15:51.469Z,51.90
2022-11-18T11:18:39.723Z,65.75
2022-11-18T11:21:13.282Z,46.47
2022-11-18T11:23:39.998Z,51.88
2022-11-18T11:29:14.894Z,40.55
2022-11-18T11:31:41.455Z,47.85
2022-11-18T11:34:27.887Z,45.28
2022-11-18T11:37:09.388Z,53.17
2022-11-18T11:39:51.053Z,45.63
2022-11-18T11:42:26.536Z,44.05
2022-11-18T11:45:07.003Z,41.95
2022-11-18T11:47:57.177Z,38.90
2022-11-18T11:50:28.393Z,31.65
2022-11-18T11:53:13.672Z,32.15
2022-11-18T11:55:42.906Z,25.35
2022-11-18T11:58:19.054Z,26.88
2022-11-18T12:00:58.931Z,25.30
2022-11-18T12:03:37.582Z,29.05
2022-11-18T12:06:03.962Z,31.88
2022-11-18T12:08:32.208Z,36.42
2022-11-18T12:11:17.593Z,35.88
2022-11-18T12:13:52.268Z,41.80
2022-11-18T12:16:23.241Z,39.38
2022-11-18T12:18:55.737Z,41.13
2022-11-18T12:21:40.909Z,36.00
2022-11-18T12:24:19.536Z,39.13
2022-11-18T12:26:47.126Z,34.75
2022-11-18T12:29:19.748Z,36.42
2022-11-18T12:31:54.829Z,35.20
2022-11-18T12:34:24.362Z,37.85
2022-11-18T12:36:51.049Z,33.97
2022-11-18T12:39:23.502Z,29.58
2022-11-18T12:42:18.917Z,26.27
2022-11-18T12:44:46.550Z,26.03
2022-11-18T12:47:13.723Z,25.63
2022-11-18T12:50:06.565Z,24.83
2022-11-18T12:52:32.854Z,21.00
2022-11-18T12:55:03.020Z,20.05
2022-11-18T12:57:29.316Z,20.63
2022-11-18T12:59:55.830Z,20.02
2022-11-18T13:02:24.122Z,19.33
2022-11-18T13:05:09.052Z,17.80
2022-11-18T13:07:59.701Z,19.23
2022-11-18T13:10:29.433Z,18.95
2022-11-18T13:12:55.877Z,16.83
2022-11-18T13:15:41.166Z,16.33
2022-11-18T13:18:12.161Z,15.55
2022-11-18T13:20:39.591Z,17.08
2022-11-18T13:23:33.835Z,17.08
2022-11-18T13:26:04.476Z,15.95
2022-11-18T13:28:49.713Z,18.83
2022-11-18T13:31:34.882Z,17.90
2022-11-18T13:34:18.287Z,21.83
2022-11-18T13:36:45.251Z,20.67
2022-11-18T13:39:20.893Z,23.70
2022-11-18T13:41:57.727Z,23.85
2022-11-18T13:44:25.646Z,24.42
2022-11-18T13:46:54.215Z,23.95
2022-11-18T13:49:23.683Z,22.50
2022-11-18T13:51:51.658Z,26.05
2022-11-18T13:54:23.067Z,25.73
2022-11-18T13:56:49.717Z,26.33
2022-11-18T13:59:18.677Z,29.05
2022-11-18T14:01:52.884Z,28.88
2022-11-18T14:04:20.600Z,27.73
2022-11-18T14:06:46.933Z,27.65
2022-11-18T14:09:25.517Z,29.40
2022-11-18T14:12:00.268Z,31.35
2022-11-18T14:14:32.891Z,31.02
2022-11-18T14:17:14.638Z,30.58
2022-11-18T14:19:41.713Z,34.45
2022-11-18T14:22:16.144Z,36.38
2022-11-18T14:24:43.057Z,30.63
2022-11-18T14:27:28.440Z,40.95
2022-11-18T14:29:54.833Z,40.03
2022-11-18T14:32:21.550Z,38.63
2022-11-18T14:34:57.200Z,41.28
2022-11-18T14:37:23.809Z,44.53
2022-11-18T14:39:56.777Z,47.47
2022-11-18T14:42:23.803Z,45.67
2022-11-18T14:44:50.646Z,48.67
2022-11-18T14:47:26.219Z,51.58
2022-11-18T14:49:52.622Z,48.33
2022-11-18T14:52:19.039Z,50.13
2022-11-18T14:54:45.416Z,51.83
2022-11-18T14:57:13.986Z,55.30
2022-11-18T14:59:40.294Z,51.83
2022-11-18T15:02:12.829Z,49.83
2022-11-18T15:04:39.261Z,48.97
2022-11-18T15:07:05.713Z,54.08
2022-11-18T15:09:32.193Z,53.50
2022-11-18T15:11:58.502Z,51.38
2022-11-18T15:14:24.953Z,49.60
2022-11-18T15:16:51.358Z,49.28
2022-11-18T15:19:17.742Z,51.72
2022-11-18T15:21:45.364Z,53.97
2022-11-18T15:24:11.901Z,58.95
2022-11-18T15:26:42.742Z,54.25
2022-11-18T15:29:15.275Z,54.80
2022-11-18T15:31:41.604Z,53.13
2022-11-18T15:34:07.963Z,55.28
2022-11-18T15:36:34.381Z,58.80
2022-11-18T15:39:00.786Z,56.20
2022-11-18T15:41:28.526Z,55.47
2022-11-18T15:43:56.055Z,52.67
2022-11-18T15:46:23.399Z,57.05
2022-11-18T15:48:53.665Z,58.65
2022-11-18T15:51:20.648Z,59.17
2022-11-18T15:53:47.028Z,59.13
2022-11-18T15:56:19.237Z,59.22
2022-11-18T15:58:46.305Z,59.63
2022-11-18T16:01:12.743Z,60.60
2022-11-18T16:03:39.090Z,57.78
2022-11-18T16:06:05.600Z,58.25
2022-11-18T16:08:31.984Z,57.50
2022-11-18T16:11:17.088Z,62.63
2022-11-18T16:13:43.666Z,58.40
2022-11-18T16:16:23.459Z,59.78
2022-11-18T16:18:49.896Z,65.38
2022-11-18T16:21:16.234Z,66.43
2022-11-18T16:23:42.618Z,68.85
2022-11-18T16:26:08.934Z,67.55
2022-11-18T16:28:35.310Z,72.03
2022-11-18T16:31:20.194Z,63.25
2022-11-18T16:33:46.540Z,69.82
2022-11-18T16:36:12.887Z,70.00
2022-11-18T16:38:39.369Z,76.60
2022-11-18T16:41:25.786Z,78.35
2022-11-18T16:43:52.136Z,75.53
2022-11-18T16:46:18.603Z,72.95
2022-11-18T16:48:44.903Z,75.25
2022-11-18T16:51:21.786Z,72.15
2022-11-18T16:53:52.938Z,79.50
2022-11-18T16:56:20.206Z,76.40
2022-11-18T16:58:46.648Z,75.35
2022-11-18T17:01:26.179Z,81.70
2022-11-18T17:03:55.906Z,76.55
2022-11-18T17:06:23.037Z,74.50
2022-11-18T17:08:49.380Z,82.03
2022-11-18T17:11:15.928Z,76.75
2022-11-18T17:13:42.548Z,82.00
2022-11-18T17:16:09.838Z,73.85
2022-11-18T17:18:36.645Z,80.05
2022-11-18T17:21:12.923Z,74.38
2022-11-18T17:23:40.013Z,79.47
2022-11-18T17:26:07.257Z,74.07
2022-11-18T17:28:36.838Z,73.63
2022-11-18T17:31:12.780Z,78.13
2022-11-18T17:33:39.484Z,80.72
2022-11-18T17:36:07.036Z,76.10
2022-11-18T17:38:40.973Z,73.55
2022-11-18T17:41:08.259Z,81.70
2022-11-18T17:43:35.008Z,93.68
2022-11-18T17:46:01.854Z,82.78
2022-11-18T17:48:28.844Z,81.57
2022-11-18T17:50:55.286Z,89.45
2022-11-18T17:53:21.638Z,86.63
2022-11-18T17:55:48.015Z,79.80
2022-11-18T17:58:14.454Z,87.90
2022-11-18T18:00:40.884Z,86.40
2022-11-18T18:03:07.200Z,84.53
2022-11-18T18:05:33.578Z,81.13
2022-11-18T18:08:00.206Z,76.82
2022-11-18T18:10:27.538Z,83.53
2022-11-18T18:13:12.393Z,81.50
2022-11-18T18:15:38.814Z,59.93
2022-11-18T18:18:05.199Z,78.05
2022-11-18T18:20:31.638Z,76.95
2022-11-18T18:22:58.057Z,73.78
2022-11-18T18:25:24.434Z,75.97
2022-11-18T18:27:50.802Z,80.00
2022-11-18T18:30:17.499Z,73.97
2022-11-18T18:32:48.132Z,71.78
2022-11-18T18:35:17.474Z,73.72
2022-11-18T18:37:43.849Z,69.30
2022-11-18T18:40:10.478Z,71.20
2022-11-18T18:42:36.767Z,68.82
2022-11-18T18:45:22.135Z,67.80
2022-11-18T18:47:48.669Z,69.00
2022-11-18T18:50:15.124Z,60.75
2022-11-18T18:52:41.469Z,63.65
2022-11-18T18:55:07.940Z,68.15
2022-11-18T18:57:34.345Z,64.30
2022-11-18T19:00:00.695Z,71.45
2022-11-18T19:02:27.245Z,69.28
2022-11-18T19:04:53.626Z,70.28
2022-11-18T19:07:20.225Z,69.72
2022-11-18T19:09:46.647Z,66.53
2022-11-18T19:12:31.734Z,71.90
2022-11-18T19:14:58.252Z,52.22
2022-11-18T19:17:24.684Z,66.88
2022-11-18T19:20:09.664Z,75.15
2022-11-18T19:22:36.087Z,54.75
2022-11-18T19:25:02.407Z,72.20
2022-11-18T19:27:29.021Z,64.63
2022-11-18T19:29:55.364Z,75.30
2022-11-18T19:32:21.729Z,66.35
2022-11-18T19:34:48.132Z,67.47
2022-11-18T19:37:14.425Z,62.70
2022-11-18T19:39:40.782Z,64.55
2022-11-18T19:42:07.616Z,68.10
2022-11-18T19:44:33.967Z,62.97
2022-11-18T19:47:00.325Z,64.38
2022-11-18T19:49:26.712Z,66.13
2022-11-18T19:51:55.859Z,57.30
2022-11-18T19:54:22.204Z,60.45
2022-11-18T19:56:48.590Z,58.58
2022-11-18T19:59:14.995Z,58.50
2022-11-18T20:01:41.519Z,60.13
2022-11-18T20:04:08.182Z,56.28
2022-11-18T20:06:35.109Z,59.63
2022-11-18T20:09:01.584Z,56.33
2022-11-18T20:11:28.200Z,57.35
2022-11-18T20:13:54.603Z,54.10
2022-11-18T20:16:22.665Z,56.65
2022-11-18T20:18:52.951Z,51.83
2022-11-18T20:21:20.247Z,51.30
2022-11-18T20:23:54.709Z,50.20
2022-11-18T20:26:21.855Z,44.45
2022-11-18T20:28:52.968Z,49.20
2022-11-18T20:31:22.819Z,51.75
2022-11-18T20:33:50.391Z,49.40
2022-11-18T20:36:20.900Z,47.70
2022-11-18T20:38:50.997Z,49.17
2022-11-18T20:41:17.903Z,43.22
2022-11-18T20:43:44.636Z,43.70
2022-11-18T20:46:14.663Z,42.88
2022-11-18T20:48:45.231Z,38.30
2022-11-18T20:51:13.037Z,48.45
2022-11-18T20:53:41.931Z,38.13
2022-11-18T20:56:08.918Z,31.23
2022-11-18T20:58:35.470Z,32.20
2022-11-18T21:01:11.006Z,29.65
2022-11-18T21:03:37.789Z,31.80
2022-11-18T21:06:07.353Z,28.95
2022-11-18T21:08:37.387Z,30.17
2022-11-18T21:11:04.596Z,30.58
2022-11-18T21:13:49.716Z,26.35
2022-11-18T21:16:16.092Z,28.33
2022-11-18T21:18:42.442Z,28.10
2022-11-18T21:21:27.899Z,28.17
2022-11-18T21:23:57.822Z,24.02
2022-11-18T21:26:25.094Z,27.30
2022-11-18T21:28:53.883Z,22.58
2022-11-18T21:31:23.193Z,23.25
2022-11-18T21:33:50.347Z,24.05
2022-11-18T21:36:17.540Z,24.25
2022-11-18T21:38:43.917Z,23.45
2022-11-18T21:41:10.466Z,21.20
2022-11-18T21:44:03.843Z,24.65
2022-11-18T21:46:24.753Z,25.08
2022-11-18T21:48:55.726Z,19.92
2022-11-18T21:51:26.158Z,23.23
2022-11-18T21:53:52.532Z,22.42
2022-11-18T21:56:22.578Z,21.23
2022-11-18T21:58:49.449Z,23.27
2022-11-18T22:01:17.498Z,21.35
2022-11-18T22:03:45.304Z,20.10
2022-11-18T22:06:12.283Z,16.65
2022-11-18T22:08:39.381Z,22.42
2022-11-18T22:11:06.646Z,18.58
2022-11-18T22:13:32.999Z,19.52
2022-11-18T22:16:03.545Z,19.52
2022-11-18T22:18:31.251Z,21.35
2022-11-18T22:21:01.546Z,20.35
2022-11-18T22:23:28.850Z,23.38
2022-11-18T22:26:04.464Z,19.58
2022-11-18T22:28:30.879Z,19.17
2022-11-18T22:31:23.497Z,17.88
2022-11-18T22:33:50.657Z,20.50
2022-11-18T22:36:20.934Z,18.08
2022-11-18T22:38:47.476Z,20.25
2022-11-18T22:41:33.943Z,18.30
2022-11-18T22:44:06.743Z,17.50
2022-11-18T22:46:33.983Z,16.23
2022-11-18T22:49:00.432Z,17.50
2022-11-18T22:51:26.796Z,18.52
2022-11-18T22:54:09.689Z,22.05
2022-11-18T22:56:39.579Z,17.90
2022-11-18T22:59:05.944Z,16.95
2022-11-18T23:01:32.357Z,19.40
2022-11-18T23:03:58.706Z,17.85
2022-11-18T23:06:25.005Z,16.58
2022-11-18T23:08:51.583Z,17.70
2022-11-18T23:11:37.105Z,18.70
2022-11-18T23:14:04.711Z,18.92
2022-11-18T23:16:33.039Z,18.50
2022-11-18T23:18:59.955Z,18.10
2022-11-18T23:21:26.381Z,18.85
2022-11-18T23:23:53.108Z,19.83
2022-11-18T23:26:19.905Z,17.90
2022-11-18T23:28:46.231Z,20.13
2022-11-18T23:31:17.222Z,16.23
2022-11-18T23:33:43.594Z,19.80
2022-11-18T23:36:11.078Z,18.73
2022-11-18T23:38:37.733Z,17.08
2022-11-18T23:41:05.323Z,18.92
2022-11-18T23:43:32.319Z,16.48
2022-11-18T23:45:59.131Z,19.05
2022-11-18T23:48:26.365Z,16.92
2022-11-18T23:50:56.493Z,18.17
2022-11-18T23:53:23.596Z,16.67
2022-11-18T23:55:50.340Z,15.27
2022-11-18T23:58:17.323Z,16.90
